createdAt,value
2023-02-22T00:01:07.386Z,6.70
2023-02-22T00:03:34.907Z,6.80
2023-02-22T00:06:05.207Z,6.60
2023-02-22T00:08:40.893Z,6.60
2023-02-22T00:11:09.025Z,6.40
2023-02-22T00:13:38.309Z,6.50
2023-02-22T00:16:06.302Z,6.30
2023-02-22T00:18:33.229Z,6.10
2023-02-22T00:21:01.505Z,6.10
2023-02-22T00:23:31.791Z,6.10
2023-02-22T00:26:00.465Z,6.00
2023-02-22T00:28:27.854Z,6.20
2023-02-22T00:30:55.039Z,6.20
2023-02-22T00:33:22.672Z,6.60
2023-02-22T00:35:49.584Z,6.70
2023-02-22T00:38:19.017Z,6.60
2023-02-22T00:40:46.268Z,6.70
2023-02-22T00:43:14.137Z,6.80
2023-02-22T00:45:41.942Z,6.80
2023-02-22T00:48:09.883Z,6.80
2023-02-22T00:50:37.117Z,6.70
2023-02-22T00:53:05.990Z,7.00
2023-02-22T00:55:36.381Z,6.80
2023-02-22T00:58:04.979Z,6.70
2023-02-22T01:00:35.387Z,6.60
2023-02-22T01:03:02.461Z,6.50
2023-02-22T01:05:31.494Z,6.60
2023-02-22T01:08:00.764Z,6.50
2023-02-22T01:10:30.946Z,6.70
2023-02-22T01:13:00.058Z,6.60
2023-02-22T01:15:30.780Z,6.50
2023-02-22T01:17:59.586Z,6.60
2023-02-22T01:20:29.108Z,6.30
2023-02-22T01:22:59.843Z,6.00
2023-02-22T01:25:30.528Z,5.70
2023-02-22T01:27:59.201Z,5.90
2023-02-22T01:30:35.416Z,5.80
2023-02-22T01:33:05.054Z,5.60
2023-02-22T01:35:36.003Z,6.10
2023-02-22T01:38:03.099Z,6.10
2023-02-22T01:40:35.330Z,6.10
2023-02-22T01:43:25.911Z,6.40
2023-02-22T01:46:25.995Z,6.40
2023-02-22T01:49:02.627Z,6.60
2023-02-22T01:51:52.552Z,6.40
2023-02-22T01:54:27.030Z,6.40
2023-02-22T01:57:12.358Z,6.50
2023-02-22T01:59:48.306Z,6.70
2023-02-22T02:02:16.433Z,6.80
2023-02-22T02:04:43.339Z,6.70
2023-02-22T02:07:16.990Z,6.60
2023-02-22T02:09:47.519Z,6.60
2023-02-22T02:12:17.482Z,6.70
2023-02-22T02:14:44.447Z,6.60
2023-02-22T02:17:17.648Z,6.60
2023-02-22T02:20:14.815Z,6.50
2023-02-22T02:23:08.564Z,6.30
2023-02-22T02:26:20.215Z,6.30
2023-02-22T02:29:02.845Z,6.30
2023-02-22T02:31:48.265Z,6.20
2023-02-22T02:34:45.329Z,6.20
2023-02-22T02:37:29.249Z,6.10
2023-02-22T02:40:20.910Z,6.00
2023-02-22T02:43:01.579Z,5.70
2023-02-22T02:45:49.544Z,5.90
2023-02-22T02:48:23.459Z,5.90
2023-02-22T02:50:52.082Z,6.00
2023-02-22T02:53:27.301Z,5.80
2023-02-22T02:55:54.180Z,5.90
2023-02-22T02:58:23.639Z,5.70
2023-02-22T03:00:57.168Z,5.70
2023-02-22T03:04:03.938Z,5.80
2023-02-22T03:06:38.934Z,6.00
2023-02-22T03:09:34.389Z,5.90
2023-02-22T03:12:19.157Z,5.60
2023-02-22T03:15:17.672Z,5.70
2023-02-22T03:18:30.894Z,5.80
2023-02-22T03:21:47.987Z,5.80
2023-02-22T03:24:25.689Z,5.80
2023-02-22T03:27:12.352Z,5.60
2023-02-22T03:29:45.691Z,5.60
2023-02-22T03:32:22.714Z,5.50
2023-02-22T03:35:00.774Z,5.40
2023-02-22T03:37:39.043Z,5.60
2023-02-22T03:40:15.082Z,6.00
2023-02-22T03:42:56.926Z,6.00
2023-02-22T03:45:28.108Z,5.60
2023-02-22T03:48:37.490Z,5.50
2023-02-22T03:51:05.644Z,5.50
2023-02-22T03:53:37.060Z,5.40
2023-02-22T03:56:08.755Z,5.50
2023-02-22T03:58:43.923Z,5.70
2023-02-22T04:01:11.778Z,5.50
2023-02-22T04:03:40.178Z,5.70
2023-02-22T04:06:07.683Z,5.90
2023-02-22T04:08:35.196Z,5.80
2023-02-22T04:11:03.313Z,5.70
2023-02-22T04:13:30.125Z,5.90
2023-02-22T04:15:57.007Z,5.70
2023-02-22T04:18:23.947Z,5.80
2023-02-22T04:20:51.705Z,5.80
2023-02-22T04:23:18.569Z,5.90
2023-02-22T04:25:45.412Z,5.80
2023-02-22T04:28:12.391Z,5.70
2023-02-22T04:30:39.253Z,5.70
2023-02-22T04:33:06.203Z,5.70
2023-02-22T04:35:35.400Z,5.60
2023-02-22T04:38:04.249Z,5.30
2023-02-22T04:40:31.658Z,5.30
2023-02-22T04:43:00.167Z,5.40
2023-02-22T04:45:27.128Z,5.30
2023-02-22T04:47:54.085Z,5.30
2023-02-22T04:50:21.217Z,5.00
2023-02-22T04:52:48.244Z,5.10
2023-02-22T04:55:16.561Z,5.00
2023-02-22T04:57:43.543Z,5.00
2023-02-22T05:00:11.274Z,4.90
2023-02-22T05:02:41.285Z,4.90
2023-02-22T05:05:08.419Z,4.90
2023-02-22T05:07:35.208Z,4.90
2023-02-22T05:10:02.709Z,5.10
2023-02-22T05:12:29.608Z,5.00
2023-02-22T05:14:56.553Z,5.10
2023-02-22T05:17:23.808Z,5.00
2023-02-22T05:19:50.865Z,5.00
2023-02-22T05:22:17.922Z,5.20
2023-02-22T05:24:44.771Z,5.10
2023-02-22T05:27:11.992Z,5.40
2023-02-22T05:29:40.030Z,5.40
2023-02-22T05:32:06.918Z,5.40
2023-02-22T05:34:33.841Z,5.00
2023-02-22T05:37:00.857Z,5.10
2023-02-22T05:39:27.838Z,5.40
2023-02-22T05:41:54.636Z,5.30
2023-02-22T05:44:21.477Z,5.40
2023-02-22T05:46:48.456Z,5.20
2023-02-22T05:49:15.950Z,5.20
2023-02-22T05:51:42.833Z,5.00
2023-02-22T05:54:09.908Z,5.30
2023-02-22T05:56:36.859Z,5.00
2023-02-22T05:59:03.874Z,4.90
2023-02-22T06:01:31.056Z,5.00
2023-02-22T06:03:57.903Z,5.00
2023-02-22T06:06:24.796Z,4.80
2023-02-22T06:08:51.633Z,5.00
2023-02-22T06:11:19.805Z,5.30
2023-02-22T06:13:53.913Z,5.50
2023-02-22T06:16:23.758Z,5.50
2023-02-22T06:18:50.787Z,5.50
2023-02-22T06:21:18.108Z,5.30
2023-02-22T06:23:45.279Z,5.30
2023-02-22T06:26:12.290Z,5.30
2023-02-22T06:28:39.213Z,5.40
2023-02-22T06:31:06.273Z,5.40
2023-02-22T06:33:33.112Z,5.50
2023-02-22T06:36:00.015Z,5.50
2023-02-22T06:38:27.790Z,5.00
2023-02-22T06:40:57.856Z,4.80
2023-02-22T06:43:25.712Z,5.00
2023-02-22T06:45:52.905Z,5.10
2023-02-22T06:48:20.191Z,5.00
2023-02-22T06:50:47.190Z,4.80
2023-02-22T06:53:14.210Z,4.90
2023-02-22T06:55:40.974Z,4.70
2023-02-22T06:58:07.773Z,5.00
2023-02-22T07:00:34.927Z,5.00
2023-02-22T07:03:04.263Z,4.90
2023-02-22T07:05:31.184Z,5.10
2023-02-22T07:08:06.996Z,5.10
2023-02-22T07:10:36.414Z,5.30
2023-02-22T07:13:06.495Z,5.40
2023-02-22T07:15:35.151Z,5.60
2023-02-22T07:18:02.260Z,5.80
2023-02-22T07:20:31.566Z,5.80
2023-02-22T07:22:59.785Z,5.90
2023-02-22T07:25:26.771Z,6.10
2023-02-22T07:27:53.639Z,6.00
2023-02-22T07:30:30.732Z,6.00
2023-02-22T07:33:01.205Z,6.30
2023-02-22T07:35:36.691Z,6.30
2023-02-22T07:38:08.451Z,6.30
2023-02-22T07:40:37.832Z,6.20
2023-02-22T07:43:22.077Z,6.40
2023-02-22T07:45:52.549Z,6.40
2023-02-22T07:48:22.799Z,6.40
2023-02-22T07:50:50.221Z,6.50
2023-02-22T07:53:30.153Z,6.50
2023-02-22T07:55:59.433Z,6.70
2023-02-22T07:58:29.387Z,6.70
2023-02-22T08:00:57.017Z,6.60
2023-02-22T08:06:30.151Z,6.80
2023-02-22T08:09:00.424Z,7.00
2023-02-22T08:11:27.516Z,7.10
2023-02-22T08:13:54.330Z,7.00
2023-02-22T08:16:21.561Z,7.30
2023-02-22T08:19:17.214Z,7.40
2023-02-22T08:21:44.653Z,7.40
2023-02-22T08:24:11.619Z,7.60
2023-02-22T08:26:48.540Z,7.80
2023-02-22T08:29:15.541Z,7.70
2023-02-22T08:32:03.590Z,7.70
2023-02-22T08:34:33.834Z,8.00
2023-02-22T08:37:00.799Z,8.10
2023-02-22T08:39:27.702Z,8.20
2023-02-22T08:41:54.830Z,8.10
2023-02-22T08:44:24.353Z,8.20
2023-02-22T08:46:51.561Z,8.20
2023-02-22T08:49:18.616Z,8.20
2023-02-22T08:51:46.956Z,8.50
2023-02-22T08:54:14.145Z,8.40
2023-02-22T08:56:41.030Z,8.70
2023-02-22T08:59:07.877Z,8.80
2023-02-22T09:01:35.464Z,9.00
2023-02-22T09:04:02.979Z,9.20
2023-02-22T09:06:30.537Z,9.30
2023-02-22T09:08:57.520Z,9.40
2023-02-22T09:11:24.516Z,9.50
2023-02-22T09:13:51.315Z,9.60
2023-02-22T09:16:18.164Z,9.60
2023-02-22T09:18:52.082Z,9.70
2023-02-22T09:21:19.315Z,10.00
2023-02-22T09:23:50.395Z,10.10
2023-02-22T09:26:23.778Z,10.30
2023-02-22T09:28:51.088Z,10.30
2023-02-22T09:31:27.306Z,10.30
2023-02-22T09:33:54.240Z,10.40
2023-02-22T09:36:21.818Z,10.50
2023-02-22T09:38:48.602Z,10.40
2023-02-22T09:41:48.875Z,10.30
2023-02-22T10:05:29.220Z,11.00
2023-02-22T10:08:11.898Z,11.10
2023-02-22T10:10:45.996Z,11.30
2023-02-22T10:14:08.406Z,11.40
2023-02-22T10:16:48.768Z,11.50
2023-02-22T10:19:24.919Z,11.50
2023-02-22T10:22:26.069Z,11.60
2023-02-22T10:25:00.760Z,11.60
2023-02-22T10:27:40.396Z,11.80
2023-02-22T10:30:34.331Z,11.90
2023-02-22T10:33:26.606Z,12.00
2023-02-22T10:35:55.621Z,12.10
2023-02-22T10:38:32.421Z,12.30
2023-02-22T10:41:11.601Z,12.30
2023-02-22T10:43:44.534Z,12.40
2023-02-22T10:46:19.636Z,12.50
2023-02-22T10:48:53.236Z,12.60
2023-02-22T10:51:23.794Z,12.70
2023-02-22T10:54:20.382Z,12.80
2023-02-22T10:56:56.997Z,13.10
2023-02-22T10:59:42.997Z,13.20
2023-02-22T11:02:35.103Z,13.30
2023-02-22T11:05:05.397Z,13.40
2023-02-22T11:07:38.928Z,13.40
2023-02-22T11:10:09.527Z,13.40
2023-02-22T11:12:43.830Z,13.50
2023-02-22T11:15:16.837Z,13.50
2023-02-22T11:17:47.176Z,13.40
2023-02-22T11:20:38.560Z,13.40
2023-02-22T11:31:32.926Z,13.70
2023-02-22T11:34:03.202Z,13.70
2023-02-22T11:36:42.471Z,13.90
2023-02-22T11:39:33.202Z,14.00
2023-02-22T11:42:28.574Z,14.00
2023-02-22T11:49:06.509Z,13.90
2023-02-22T11:52:16.749Z,13.90
2023-02-22T11:55:01.677Z,14.00
2023-02-22T11:58:13.865Z,14.20
2023-02-22T12:01:17.123Z,14.10
2023-02-22T12:04:28.704Z,14.10
2023-02-22T12:07:19.394Z,14.20
2023-02-22T12:10:33.781Z,14.50
2023-02-22T12:13:17.100Z,14.10
2023-02-22T12:16:56.064Z,14.40
2023-02-22T12:19:41.691Z,14.30
2023-02-22T12:22:33.585Z,13.90
2023-02-22T12:25:21.590Z,14.00
2023-02-22T12:28:00.595Z,14.20
2023-02-22T12:30:38.515Z,14.50
2023-02-22T12:33:19.401Z,14.50
2023-02-22T12:35:54.601Z,14.60
2023-02-22T12:38:44.376Z,14.80
2023-02-22T12:41:44.804Z,15.00
2023-02-22T12:44:22.279Z,14.90
2023-02-22T12:46:56.734Z,14.90
2023-02-22T12:49:51.157Z,15.00
2023-02-22T12:52:55.868Z,15.10
2023-02-22T12:55:56.531Z,15.20
2023-02-22T12:58:44.301Z,15.40
2023-02-22T13:01:20.785Z,15.20
2023-02-22T13:03:49.142Z,15.20
2023-02-22T13:06:39.647Z,15.30
2023-02-22T13:09:37.148Z,15.40
2023-02-22T13:12:18.306Z,15.20
2023-02-22T13:15:02.463Z,14.90
2023-02-22T13:17:43.721Z,14.60
2023-02-22T13:20:34.262Z,15.00
2023-02-22T13:23:19.282Z,15.20
2023-02-22T13:26:09.458Z,15.20
2023-02-22T13:28:49.171Z,15.20
2023-02-22T13:31:51.202Z,15.20
2023-02-22T13:35:01.584Z,15.10
2023-02-22T13:38:05.669Z,14.80
2023-02-22T13:41:16.312Z,14.90
2023-02-22T13:44:14.284Z,14.90
2023-02-22T13:47:14.177Z,14.90
2023-02-22T13:50:18.081Z,15.00
2023-02-22T13:52:47.854Z,15.10
2023-02-22T13:55:28.089Z,15.20
2023-02-22T13:58:07.636Z,15.10
2023-02-22T14:00:42.644Z,15.20
2023-02-22T14:03:15.571Z,15.20
2023-02-22T14:05:42.465Z,15.20
2023-02-22T14:08:18.779Z,15.40
2023-02-22T14:11:33.228Z,15.40
2023-02-22T14:14:02.596Z,15.40
2023-02-22T14:16:33.927Z,15.20
2023-02-22T14:19:23.725Z,15.10
2023-02-22T14:25:42.781Z,15.10
2023-02-22T14:28:50.124Z,15.10
2023-02-22T14:31:35.465Z,15.10
2023-02-22T14:34:22.640Z,15.30
2023-02-22T14:37:08.536Z,15.50
2023-02-22T14:51:21.471Z,14.80
2023-02-22T14:58:36.472Z,15.00
2023-02-22T15:05:31.305Z,15.00
2023-02-22T15:16:04.279Z,15.00
2023-02-22T15:22:37.618Z,14.90
2023-02-22T15:33:42.387Z,14.80
2023-02-22T15:36:17.326Z,14.80
2023-02-22T15:38:55.810Z,14.80
2023-02-22T15:41:46.189Z,14.80
2023-02-22T15:53:34.175Z,14.80
2023-02-22T16:00:36.045Z,14.80
2023-02-22T16:07:17.101Z,14.40
2023-02-22T16:14:33.165Z,14.40
2023-02-22T16:37:29.532Z,14.10
2023-02-22T16:47:13.962Z,14.10
2023-02-22T16:49:53.112Z,13.90
2023-02-22T16:56:32.416Z,13.90
2023-02-22T16:59:38.080Z,13.70
2023-02-22T17:02:09.990Z,13.80
2023-02-22T17:04:36.942Z,13.50
2023-02-22T17:07:05.429Z,13.70
2023-02-22T17:09:32.919Z,13.50
2023-02-22T17:12:00.488Z,13.40
2023-02-22T17:14:34.534Z,13.50
2023-02-22T17:17:01.903Z,13.50
2023-02-22T17:19:32.339Z,13.30
2023-02-22T17:24:50.195Z,13.60
2023-02-22T17:27:17.168Z,13.60
2023-02-22T17:29:45.148Z,13.50
2023-02-22T17:32:13.161Z,13.20
2023-02-22T17:34:40.656Z,13.10
2023-02-22T17:37:07.570Z,13.30
2023-02-22T17:39:34.411Z,13.10
2023-02-22T17:42:01.586Z,12.90
2023-02-22T17:44:30.074Z,13.00
2023-02-22T17:46:56.970Z,13.20
2023-02-22T17:49:23.849Z,13.20
2023-02-22T17:52:10.068Z,13.20
2023-02-22T17:54:38.784Z,13.20
2023-02-22T17:57:08.682Z,13.10
2023-02-22T17:59:41.320Z,12.80
2023-02-22T18:02:08.610Z,12.90
2023-02-22T18:04:38.175Z,12.90
2023-02-22T18:07:05.324Z,13.00
2023-02-22T18:09:32.702Z,12.80
2023-02-22T18:11:59.599Z,12.90
2023-02-22T18:14:26.520Z,13.00
2023-02-22T18:16:53.360Z,13.10
2023-02-22T18:19:23.098Z,13.20
2023-02-22T18:21:50.151Z,13.20
2023-02-22T18:24:17.396Z,13.20
2023-02-22T18:26:44.269Z,13.10
2023-02-22T18:29:12.397Z,13.10
2023-02-22T18:31:39.576Z,13.20
2023-02-22T18:34:06.610Z,13.10
2023-02-22T18:36:33.430Z,13.10
2023-02-22T18:39:01.345Z,13.20
2023-02-22T18:41:28.797Z,12.90
2023-02-22T18:44:03.210Z,12.90
2023-02-22T18:46:31.944Z,12.70
2023-02-22T18:49:04.322Z,12.60
2023-02-22T18:51:34.166Z,12.70
2023-02-22T18:54:06.697Z,12.80
2023-02-22T18:56:40.608Z,12.80
2023-02-22T18:59:14.490Z,12.80
2023-02-22T19:01:48.694Z,12.50
2023-02-22T19:04:18.889Z,12.50
2023-02-22T19:06:48.388Z,12.50
2023-02-22T19:09:55.319Z,12.60
2023-02-22T19:12:45.778Z,12.30
2023-02-22T19:15:19.600Z,12.40
2023-02-22T19:17:49.535Z,12.40
2023-02-22T19:20:21.962Z,12.50
2023-02-22T19:22:53.626Z,12.40
2023-02-22T19:25:20.698Z,12.50
2023-02-22T19:27:49.967Z,12.40
2023-02-22T19:30:19.606Z,12.40
2023-02-22T19:32:49.396Z,12.50
2023-02-22T19:35:29.652Z,12.30
2023-02-22T19:37:56.705Z,12.40
2023-02-22T19:40:24.492Z,12.10
2023-02-22T19:43:01.904Z,12.30
2023-02-22T19:45:28.885Z,12.50
2023-02-22T19:47:56.168Z,12.10
2023-02-22T19:50:24.501Z,12.50
2023-02-22T19:53:00.111Z,12.40
2023-02-22T19:55:32.324Z,12.30
2023-02-22T19:58:02.143Z,12.30
2023-02-22T20:00:35.672Z,12.40
2023-02-22T20:03:10.799Z,12.40
2023-02-22T20:05:46.938Z,12.60
2023-02-22T20:08:13.881Z,12.40
2023-02-22T20:10:42.785Z,12.40
2023-02-22T20:13:17.159Z,12.40
2023-02-22T20:15:45.262Z,12.30
2023-02-22T20:18:17.258Z,12.40
2023-02-22T20:20:44.579Z,12.40
2023-02-22T20:23:25.239Z,12.40
2023-02-22T20:26:10.842Z,12.50
2023-02-22T20:28:43.813Z,12.50
2023-02-22T20:31:13.904Z,12.60
2023-02-22T20:33:56.880Z,12.50
2023-02-22T20:36:33.094Z,12.50
2023-02-22T20:39:16.249Z,12.40
2023-02-22T20:41:48.967Z,12.40
2023-02-22T20:44:29.560Z,12.40
2023-02-22T20:46:59.068Z,12.50
2023-02-22T20:49:27.632Z,12.30
2023-02-22T20:51:54.692Z,12.20
2023-02-22T20:54:32.078Z,12.00
2023-02-22T20:57:18.422Z,12.10
2023-02-22T20:59:51.433Z,12.10
2023-02-22T21:02:28.285Z,12.10
2023-02-22T21:05:02.166Z,12.10
2023-02-22T21:07:31.541Z,12.10
2023-02-22T21:09:58.697Z,12.10
2023-02-22T21:12:25.558Z,12.20
2023-02-22T21:14:52.348Z,12.10
2023-02-22T21:17:27.109Z,11.80
2023-02-22T21:19:55.324Z,12.00
2023-02-22T21:22:22.378Z,11.90
2023-02-22T21:24:49.703Z,12.00
2023-02-22T21:27:16.826Z,12.00
2023-02-22T21:29:44.008Z,11.90
2023-02-22T21:32:13.237Z,12.00
2023-02-22T21:34:40.327Z,12.00
2023-02-22T21:37:08.292Z,11.90
2023-02-22T21:39:35.774Z,12.00
2023-02-22T21:42:07.301Z,11.90
2023-02-22T21:44:34.329Z,11.90
2023-02-22T21:47:01.372Z,11.90
2023-02-22T21:49:29.060Z,11.90
2023-02-22T21:51:56.592Z,11.90
2023-02-22T21:54:23.756Z,11.90
2023-02-22T21:56:50.804Z,11.80
2023-02-22T21:59:21.004Z,12.00
2023-02-22T22:01:56.657Z,12.10
2023-02-22T22:04:35.049Z,12.00
2023-02-22T22:07:03.965Z,11.90
2023-02-22T22:09:37.409Z,11.70
2023-02-22T22:12:10.459Z,11.90
2023-02-22T22:14:38.643Z,11.90
2023-02-22T22:17:09.333Z,11.70
2023-02-22T22:22:44.230Z,11.90
2023-02-22T22:25:18.995Z,11.90
2023-02-22T22:27:46.147Z,11.90
2023-02-22T22:30:13.448Z,11.90
2023-02-22T22:32:42.845Z,11.80
2023-02-22T22:35:14.780Z,11.90
2023-02-22T22:37:45.605Z,11.60
2023-02-22T22:40:15.761Z,11.60
2023-02-22T22:42:46.396Z,11.70
2023-02-22T22:45:18.047Z,11.80
2023-02-22T22:47:48.298Z,11.80
2023-02-22T22:50:26.501Z,11.80
2023-02-22T22:52:58.251Z,11.90
2023-02-22T22:55:34.733Z,11.70
2023-02-22T22:58:07.233Z,11.80
2023-02-22T23:00:44.434Z,11.70
2023-02-22T23:03:22.732Z,11.60
2023-02-22T23:05:57.315Z,11.60
2023-02-22T23:08:43.175Z,11.80
2023-02-22T23:11:20.342Z,11.60
2023-02-22T23:13:50.347Z,11.80
2023-02-22T23:16:26.872Z,11.80
2023-02-22T23:18:56.194Z,11.80
2023-02-22T23:21:32.312Z,11.60
2023-02-22T23:24:22.931Z,11.60
2023-02-22T23:26:50.080Z,11.70
2023-02-22T23:29:26.555Z,11.60
2023-02-22T23:31:57.610Z,11.60
2023-02-22T23:34:38.026Z,11.70
2023-02-22T23:37:18.257Z,11.70
2023-02-22T23:39:47.151Z,11.60
2023-02-22T23:42:17.023Z,11.80
2023-02-22T23:44:46.933Z,11.70
2023-02-22T23:47:15.925Z,11.70
2023-02-22T23:49:45.336Z,11.80
2023-02-22T23:52:16.144Z,11.60
2023-02-22T23:54:46.461Z,11.60
2023-02-22T23:57:24.197Z,11.80
2023-02-22T23:59:51.404Z,11.60
